Overview Statistics Trail Chart Weather Telemetry Raw packets
 

This is the latest recevied weather packets stored in our database for station/object KD8DNO-13. If no packets are shown the sender has not sent any weather packets the latest 10 day(s).

<< 13 14 15 16 17 18 19 >>
Time Temp. Humidity Pressure Rain* Wind** Luminosity Snow
1788468783 33.89° C 54% 1015.5 hPa 0 mm - - -
1788468483 33.33° C 55% 1015.5 hPa 0 mm - - -
1788468183 32.22° C 57% 1015.5 hPa 0 mm - - -
1788467883 33.33° C 55% 1015.9 hPa 0 mm - - -
1788467583 32.78° C 54% 1015.9 hPa 0 mm - - -
1788467283 33.33° C 52% 1015.9 hPa 0 mm - - -
1788466984 33.33° C 53% 1015.9 hPa 0 mm - - -
1788466683 34.44° C 51% 1015.9 hPa 0 mm - - -
1788466384 35° C 52% 1016.2 hPa 0 mm - - -
1788466084 35° C 50% 1016.2 hPa 0 mm - - -
1788465784 34.44° C 52% 1016.5 hPa 0 mm - - -
1788465483 33.89° C 53% 1016.5 hPa 0 mm - - -
1788465184 33.89° C 52% 1016.5 hPa 0 mm - - -
1788464883 33.33° C 59% 1016.5 hPa 0 mm - - -
1788464583 33.89° C 59% 1016.5 hPa 0 mm - - -
1788464283 31.67° C 67% 1016.9 hPa 0 mm - - -
1788463990 30° C 70% 1016.9 hPa 0 mm - - -
1788463683 29.44° C 75% 1016.9 hPa 0 mm - - -
1788463383 29.44° C 73% 1017.2 hPa 0 mm - - -
1788463083 30° C 71% 1017.2 hPa 0 mm - - -
1788462783 30.56° C 69% 1017.6 hPa 0 mm - - -
1788462483 31.11° C 66% 1017.6 hPa 0 mm - - -
1788462183 31.11° C 64% 1017.6 hPa 0 mm - - -
1788461883 31.67° C 65% 1017.6 hPa 0 mm - - -
1788461583 32.22° C 64% 1017.6 hPa 0 mm - - -

* Rain latest hour (hover to see other rain measurements)
** Current wind speed in m/s (hover to see current wind gust speed)